createdAt,value
2017-01-25T00:00:55.385Z,-2.04
2017-01-25T00:05:51.586Z,-1.94
2017-01-25T00:10:47.821Z,-1.89
2017-01-25T00:15:44.272Z,-1.87
2017-01-25T00:20:40.128Z,-1.79
2017-01-25T00:25:36.592Z,-1.83
2017-01-25T00:30:32.835Z,-1.86
2017-01-25T00:35:29.029Z,-1.95
2017-01-25T00:40:25.280Z,-2.05
2017-01-25T00:45:21.728Z,-2.00
2017-01-25T00:50:17.875Z,-2.19
2017-01-25T00:55:14.162Z,-2.16
2017-01-25T01:00:10.563Z,-2.12
2017-01-25T01:05:06.713Z,-2.05
2017-01-25T01:10:03.686Z,-2.18
2017-01-25T01:14:59.984Z,-2.23
2017-01-25T01:19:57.074Z,-2.32
2017-01-25T01:24:54.021Z,-2.45
2017-01-25T01:29:50.342Z,-2.32
2017-01-25T01:34:46.367Z,-2.47
2017-01-25T01:39:42.799Z,-2.50
2017-01-25T01:44:40.007Z,-2.65
2017-01-25T01:49:36.118Z,-2.70
2017-01-25T01:54:32.498Z,-2.65
2017-01-25T01:59:28.961Z,-2.65
2017-01-25T02:04:25.236Z,-2.69
2017-01-25T02:09:21.656Z,-2.73
2017-01-25T02:14:17.933Z,-2.69
2017-01-25T02:19:14.110Z,-2.69
2017-01-25T02:24:09.904Z,-2.89
2017-01-25T02:29:06.492Z,-2.86
2017-01-25T02:34:03.536Z,-2.83
2017-01-25T02:39:00.460Z,-2.98
2017-01-25T02:43:56.811Z,-3.01
2017-01-25T02:48:53.530Z,-3.13
2017-01-25T02:53:49.863Z,-3.07
2017-01-25T02:58:46.209Z,-3.06
2017-01-25T03:03:42.492Z,-3.22
2017-01-25T03:08:38.685Z,-3.16
2017-01-25T03:13:35.028Z,-3.16
2017-01-25T03:18:32.232Z,-3.17
2017-01-25T03:23:28.371Z,-3.22
2017-01-25T03:28:24.527Z,-3.34
2017-01-25T03:33:20.879Z,-3.46
2017-01-25T03:38:17.663Z,-3.30
2017-01-25T03:43:14.041Z,-3.44
2017-01-25T03:48:10.361Z,-3.25
2017-01-25T03:53:06.515Z,-3.35
2017-01-25T03:58:02.820Z,-3.33
2017-01-25T04:02:59.168Z,-3.46
2017-01-25T04:07:55.619Z,-3.56
2017-01-25T04:12:51.949Z,-3.55
2017-01-25T04:17:48.537Z,-3.31
2017-01-25T04:22:44.663Z,-3.52
2017-01-25T04:27:41.029Z,-3.49
2017-01-25T04:32:37.495Z,-3.48
2017-01-25T04:37:33.851Z,-3.51
2017-01-25T04:42:30.205Z,-3.51
2017-01-25T04:47:26.308Z,-3.59
2017-01-25T04:52:22.566Z,-3.70
2017-01-25T04:57:19.967Z,-3.63
2017-01-25T05:02:15.841Z,-3.67
2017-01-25T05:07:12.138Z,-3.69
2017-01-25T05:12:08.870Z,-3.80
2017-01-25T05:17:05.962Z,-3.75
2017-01-25T05:22:02.131Z,-3.82
2017-01-25T05:26:58.582Z,-3.85
2017-01-25T05:31:55.108Z,-3.82
2017-01-25T05:36:51.439Z,-3.72
2017-01-25T05:41:47.832Z,-3.70
2017-01-25T05:46:44.338Z,-3.70
2017-01-25T05:51:40.487Z,-3.86
2017-01-25T05:56:36.648Z,-3.93
2017-01-25T06:01:32.978Z,-4.02
2017-01-25T06:06:29.198Z,-4.02
2017-01-25T06:11:25.606Z,-3.85
2017-01-25T06:16:21.671Z,-3.91
2017-01-25T06:21:18.025Z,-3.86
2017-01-25T06:26:14.268Z,-4.02
2017-01-25T06:31:11.449Z,-3.98
2017-01-25T06:36:07.774Z,-4.06
2017-01-25T06:41:03.996Z,-4.02
2017-01-25T06:46:00.100Z,-4.02
2017-01-25T06:50:56.344Z,-3.91
2017-01-25T06:55:52.691Z,-3.99
2017-01-25T07:00:48.805Z,-3.93
2017-01-25T07:05:45.029Z,-3.89
2017-01-25T07:10:41.342Z,-4.06
2017-01-25T07:15:37.568Z,-4.03
2017-01-25T07:20:34.587Z,-4.12
2017-01-25T07:25:30.753Z,-4.13
2017-01-25T07:30:27.151Z,-4.10
2017-01-25T07:35:23.856Z,-3.98
2017-01-25T07:40:19.829Z,-3.99
2017-01-25T07:45:16.364Z,-4.02
2017-01-25T07:50:13.428Z,-4.10
2017-01-25T07:55:09.898Z,-4.07
2017-01-25T08:00:06.246Z,-4.03
2017-01-25T08:05:02.445Z,-3.96
2017-01-25T08:09:58.712Z,-3.80
2017-01-25T08:14:54.937Z,-3.78
2017-01-25T08:19:51.196Z,-3.66
2017-01-25T08:24:47.589Z,-3.54
2017-01-25T08:29:43.841Z,-3.40
2017-01-25T08:34:41.622Z,-3.41
2017-01-25T08:39:37.801Z,-3.35
2017-01-25T08:44:33.546Z,-3.33
2017-01-25T08:49:30.774Z,-3.19
2017-01-25T08:54:26.858Z,-3.02
2017-01-25T08:59:23.252Z,-2.98
2017-01-25T09:04:19.410Z,-2.98
2017-01-25T09:09:15.547Z,-2.92
2017-01-25T09:14:12.103Z,-2.88
2017-01-25T09:19:09.102Z,-2.58
2017-01-25T09:24:06.097Z,-2.32
2017-01-25T09:29:02.645Z,-2.32
2017-01-25T09:33:59.203Z,-2.00
2017-01-25T09:38:56.402Z,-2.19
2017-01-25T09:43:53.905Z,-2.21
2017-01-25T09:48:50.067Z,-2.22
2017-01-25T09:53:46.313Z,-1.97
2017-01-25T09:58:42.899Z,-1.97
2017-01-25T10:03:39.309Z,-1.61
2017-01-25T10:08:35.947Z,-1.46
2017-01-25T10:13:32.428Z,-1.33
2017-01-25T10:18:30.011Z,-1.07
2017-01-25T10:23:26.299Z,-0.94
2017-01-25T10:28:23.561Z,-1.15
2017-01-25T10:33:19.927Z,-0.97
2017-01-25T10:38:16.225Z,-0.72
2017-01-25T10:43:12.749Z,-0.46
2017-01-25T10:48:09.184Z,-0.65
2017-01-25T10:53:06.210Z,-0.46
2017-01-25T10:58:02.724Z,-0.50
2017-01-25T11:02:59.196Z,-0.34
2017-01-25T11:07:55.684Z,-0.02
2017-01-25T11:12:52.897Z,0.04
2017-01-25T11:17:49.257Z,-0.02
2017-01-25T11:22:45.497Z,0.36
2017-01-25T11:27:41.944Z,0.12
2017-01-25T11:32:38.177Z,0.23
2017-01-25T11:37:34.437Z,0.26
2017-01-25T11:42:30.693Z,0.47
2017-01-25T11:47:27.485Z,0.55
2017-01-25T11:52:23.966Z,0.44
2017-01-25T11:57:20.571Z,0.62
2017-01-25T12:02:16.967Z,1.02
2017-01-25T12:07:13.283Z,0.96
2017-01-25T12:12:09.605Z,0.83
2017-01-25T12:17:05.664Z,0.78
2017-01-25T12:22:02.118Z,1.02
2017-01-25T12:26:58.670Z,1.22
2017-01-25T12:31:55.194Z,1.31
2017-01-25T12:36:51.698Z,1.50
2017-01-25T12:41:48.351Z,1.35
2017-01-25T12:46:45.044Z,1.20
2017-01-25T12:51:41.359Z,1.37
2017-01-25T12:56:37.628Z,1.10
2017-01-25T13:01:33.950Z,1.02
2017-01-25T13:06:30.437Z,0.99
2017-01-25T13:11:26.726Z,1.05
2017-01-25T13:16:23.055Z,1.23
2017-01-25T13:21:19.348Z,1.08
2017-01-25T13:26:16.506Z,1.02
2017-01-25T13:31:12.656Z,0.94
2017-01-25T13:36:08.803Z,0.84
2017-01-25T13:41:05.833Z,1.04
2017-01-25T13:46:02.859Z,0.95
2017-01-25T13:50:59.191Z,0.91
2017-01-25T13:55:55.781Z,0.96
2017-01-25T14:00:51.986Z,0.98
2017-01-25T14:05:48.522Z,0.99
2017-01-25T14:10:44.943Z,0.92
2017-01-25T14:15:41.210Z,0.86
2017-01-25T14:20:37.543Z,0.94
2017-01-25T14:25:33.923Z,0.81
2017-01-25T14:30:30.262Z,0.92
2017-01-25T14:35:26.733Z,1.13
2017-01-25T14:40:23.093Z,0.99
2017-01-25T14:45:19.886Z,0.83
2017-01-25T14:50:17.207Z,0.56
2017-01-25T14:55:13.113Z,0.58
2017-01-25T15:00:09.633Z,0.40
2017-01-25T15:05:05.972Z,0.37
2017-01-25T15:10:02.303Z,0.18
2017-01-25T15:14:58.532Z,0.23
2017-01-25T15:19:54.914Z,0.10
2017-01-25T15:24:51.170Z,-0.10
2017-01-25T15:29:47.587Z,0.03
2017-01-25T15:34:44.526Z,-0.06
2017-01-25T15:39:40.536Z,-0.25
2017-01-25T15:44:37.452Z,-0.17
2017-01-25T15:49:33.405Z,-0.21
2017-01-25T15:54:29.555Z,-0.35
2017-01-25T15:59:25.781Z,-0.35
2017-01-25T16:04:23.244Z,-0.47
2017-01-25T16:09:19.964Z,-0.35
2017-01-25T16:14:16.315Z,-0.43
2017-01-25T16:19:12.441Z,-0.70
2017-01-25T16:24:08.561Z,-0.71
2017-01-25T16:29:04.714Z,-0.86
2017-01-25T16:34:01.022Z,-0.83
2017-01-25T16:38:57.275Z,-0.77
2017-01-25T16:43:53.463Z,-0.86
2017-01-25T16:48:50.098Z,-1.07
2017-01-25T16:53:46.516Z,-1.22
2017-01-25T16:58:42.676Z,-1.15
2017-01-25T17:03:39.122Z,-1.14
2017-01-25T17:08:36.289Z,-1.30
2017-01-25T17:13:32.733Z,-1.19
2017-01-25T17:18:29.003Z,-1.23
2017-01-25T17:23:25.812Z,-1.22
2017-01-25T17:28:22.212Z,-1.33
2017-01-25T17:33:18.213Z,-1.17
2017-01-25T17:38:14.449Z,-1.30
2017-01-25T17:43:10.672Z,-1.41
2017-01-25T17:48:06.799Z,-1.41
2017-01-25T17:53:03.365Z,-1.44
2017-01-25T17:57:59.636Z,-1.56
2017-01-25T18:02:55.603Z,-1.59
2017-01-25T18:07:51.752Z,-1.72
2017-01-25T18:12:47.844Z,-1.80
2017-01-25T18:17:44.321Z,-1.86
2017-01-25T18:22:40.647Z,-1.71
2017-01-25T18:27:37.059Z,-1.89
2017-01-25T18:32:33.559Z,-2.05
2017-01-25T18:37:29.775Z,-1.92
2017-01-25T18:42:27.398Z,-1.95
2017-01-25T18:47:23.439Z,-2.04
2017-01-25T18:52:19.614Z,-2.00
2017-01-25T18:57:16.602Z,-2.04
2017-01-25T19:02:12.754Z,-2.05
2017-01-25T19:07:09.716Z,-2.16
2017-01-25T19:12:06.736Z,-2.19
2017-01-25T19:17:02.797Z,-1.95
2017-01-25T19:21:59.199Z,-2.00
2017-01-25T19:26:55.606Z,-2.13
2017-01-25T19:31:52.023Z,-2.21
2017-01-25T19:36:48.544Z,-2.22
2017-01-25T19:41:44.534Z,-2.12
2017-01-25T19:46:41.191Z,-2.05
2017-01-25T19:51:37.471Z,-2.34
2017-01-25T20:01:35.460Z,-2.32
2017-01-25T20:06:31.726Z,-2.41
2017-01-25T20:11:32.008Z,-2.30
2017-01-25T20:16:27.405Z,-2.48
2017-01-25T20:21:23.669Z,-2.26
2017-01-25T20:26:20.158Z,-2.40
2017-01-25T20:31:16.930Z,-2.62
2017-01-25T20:36:13.292Z,-2.65
2017-01-25T20:41:09.443Z,-2.53
2017-01-25T20:46:06.484Z,-2.59
2017-01-25T20:51:02.867Z,-2.45
2017-01-25T20:55:59.178Z,-2.50
2017-01-25T21:00:56.188Z,-2.74
2017-01-25T21:05:52.404Z,-2.76
2017-01-25T21:10:48.837Z,-2.94
2017-01-25T21:15:45.486Z,-2.89
2017-01-25T21:20:41.683Z,-2.97
2017-01-25T21:25:37.828Z,-2.77
2017-01-25T21:30:34.867Z,-2.80
2017-01-25T21:35:31.142Z,-2.86
2017-01-25T21:40:27.605Z,-2.83
2017-01-25T21:45:23.597Z,-2.70
2017-01-25T21:50:20.976Z,-2.55
2017-01-25T21:55:16.877Z,-2.48
2017-01-25T22:00:13.257Z,-2.47
2017-01-25T22:05:10.442Z,-2.40
2017-01-25T22:10:07.497Z,-2.45
2017-01-25T22:15:03.772Z,-2.34
2017-01-25T22:20:00.853Z,-2.23
2017-01-25T22:24:57.148Z,-2.32
2017-01-25T22:29:54.206Z,-2.22
2017-01-25T22:34:51.383Z,-2.01
2017-01-25T22:39:47.986Z,-1.87
2017-01-25T22:44:45.194Z,-1.68
2017-01-25T22:49:41.347Z,-1.47
2017-01-25T22:54:37.896Z,-1.37
2017-01-25T22:59:34.226Z,-1.40
2017-01-25T23:04:31.460Z,-1.35
2017-01-25T23:09:27.877Z,-1.33
2017-01-25T23:14:24.378Z,-1.14
2017-01-25T23:19:20.912Z,-0.97
2017-01-25T23:24:17.399Z,-1.09
2017-01-25T23:29:13.651Z,-0.86
2017-01-25T23:34:11.952Z,-0.96
2017-01-25T23:39:08.139Z,-1.12
2017-01-25T23:44:04.211Z,-1.17
2017-01-25T23:49:01.345Z,-1.29
2017-01-25T23:53:57.843Z,-1.38
2017-01-25T23:58:53.939Z,-1.30
